Terminal Aerodrome Forecast
Issued by NWS Cleveland, OH

Home | Current Version | Previous Version | Text Only | Print | Product List | Glossary On
Versions: 1 2 3 4 5 6 7 8 9 10 11 12 13
000
FTUS41 KCLE 032331
TAFERI
TAF
KERI 032331Z 0400/0424 28006KT P6SM SCT020 BKN120
      TEMPO 0400/0402 BKN020
     FM040200 16004KT P6SM BKN120
      TEMPO 0410/0413 5SM BR
     FM041500 09006KT P6SM SCT120 BKN250
     FM041800 04010KT P6SM SCT250=

USA.gov is the U.S. government's official web portal to all federal, state and local government web resources and services.